Aérodrome :
LOGIN :

S'inscrire | Disclaimer

   EN    FR    IT 

 










Légende :    VFR   VFR Marginal   IFR   IFR Intensif   IFR Très Intensif
Visi : 
Plafond : 
>= 8 km
>= 3000ft
5 à 8 km
1000 à 3000 ft
1500m à 5 km
500 à 1000 ft
800 à 1500m
200 à 500 ft
< 800m
< 200 ft
Symboles :   Orages  Brouillard  Fortes neiges  Fortes précipitations  Vent > 20 kt
SIGMETs :   Divers  Orages  Givrage  Turbulence  Onde Orograph.  Cendres Volcan.






- Altitude de l'aérodrome : 194 ft
- Code IATA : LME


LFRM - Le Mans

DERNIER METAR :
  • 241330Z AUTO 22015G28KT 190V260 8000 +RA FEW023/// BKN031/// BKN052/// ///TCU 07/04 Q1001 TEMPO 4000 SHRA SCT012 BKN020CB

METARs EXPIRÉS :
  • 241300Z AUTO 20012KT 170V230 9999 RA BKN032/// BKN040/// OVC048/// ///TCU 10/05 Q1000 TEMPO VRB15G35KT 2000 SHRAGS BKN010 BKN018CB
  • 241230Z AUTO 19011KT 170V230 9999 BKN031 BKN047 BKN064 10/04 Q1001 TEMPO VRB15G35KT 2000 SHRAGS BKN010 BKN018CB
  • 241200Z AUTO 20010KT 170V240 9999 BKN026 BKN032 BKN039 10/04 Q1001 TEMPO VRB15G35KT 2000 SHRAGS BKN010 BKN018CB
  • 241130Z AUTO 20009KT 160V230 9999 FEW024 SCT170 09/05 Q1001 TEMPO VRB15G35KT 2000 SHRAGS BKN010 BKN018CB
  • 241100Z AUTO 19010KT 9999 SCT023 SCT030 BKN043 08/04 Q1001 TEMPO VRB15G25KT 4000 SHRA SCT012 BKN020CB
  • 241030Z AUTO 20008KT 170V240 9999 FEW020 08/04 Q1001 TEMPO VRB15G25KT 4000 SHRA SCT012 BKN020CB
  • 241000Z AUTO 20008KT 170V240 9999 FEW017 07/04 Q1001 NOSIG
  • 240930Z AUTO 19006KT 150V220 9999 FEW011 06/04 Q1001 NOSIG
  • 240900Z AUTO 18005KT 120V210 CAVOK 05/03 Q1001 NOSIG

TAF TAF LFRM
Valide du 24 à 12h jusqu'au 25 à 12h UTC


241100Z 2412/2512 22008KT 9999 SCT030
TEMPO 2412/2420 VRB15G30KT 4000 SHRA SCT012 BKN020CB
PROB40
TEMPO 2413/2415 VRB15G35KT 2000 SHRAGS BKN010 BKN018CB
PROB30
TEMPO 2420/2504 4000 SHRA SCT025TCU
BECMG 2504/2506 16010KT 4500 -RA BKN011
TEMPO 2506/2512 BKN005



MET'MAP, la Météo Aéronautique d'un coup d'oeil ! - Copyright ORBIFLY Décembre 2007 - Disclaimer

ORBIFLY MET'MAP TEAM :

Programmation & Développement : Alexandra Zaïnal
Sur une idée originale de : Baudouin d'Aumeries
Soutien technique & logistique : Manuel Goepfert
Assistance : Marc-Olivier Méhu




SOURCES & CREDITS :

   NOAA